createdAt,value
2022-09-20T00:01:27.216Z,7.18
2022-09-20T00:03:57.404Z,7.15
2022-09-20T00:06:28.153Z,7.14
2022-09-20T00:08:56.669Z,7.18
2022-09-20T00:11:29.313Z,7.10
2022-09-20T00:13:59.111Z,7.07
2022-09-20T00:16:29.184Z,7.05
2022-09-20T00:18:59.188Z,7.06
2022-09-20T00:21:29.908Z,7.04
2022-09-20T00:23:58.547Z,7.04
2022-09-20T00:26:28.576Z,7.04
2022-09-20T00:28:58.313Z,6.97
2022-09-20T00:31:26.794Z,6.95
2022-09-20T00:34:13.572Z,6.98
2022-09-20T00:36:41.989Z,6.98
2022-09-20T00:39:12.904Z,6.93
2022-09-20T00:41:42.320Z,6.90
2022-09-20T00:44:47.631Z,6.87
2022-09-20T00:47:25.617Z,6.81
2022-09-20T00:49:58.748Z,6.77
2022-09-20T00:52:28.132Z,6.76
2022-09-20T00:54:57.446Z,6.73
2022-09-20T00:57:27.077Z,6.75
2022-09-20T00:59:55.930Z,6.74
2022-09-20T01:02:27.832Z,6.76
2022-09-20T01:04:57.670Z,6.69
2022-09-20T01:07:27.036Z,6.66
2022-09-20T01:09:55.201Z,6.70
2022-09-20T01:12:26.960Z,6.71
2022-09-20T01:14:57.834Z,6.69
2022-09-20T01:17:28.844Z,6.64
2022-09-20T01:20:14.599Z,6.66
2022-09-20T01:22:53.902Z,6.69
2022-09-20T01:25:42.797Z,6.65
2022-09-20T01:28:12.380Z,6.63
2022-09-20T01:30:44.878Z,6.57
2022-09-20T01:33:18.852Z,6.57
2022-09-20T01:35:51.206Z,6.55
2022-09-20T01:38:30.571Z,6.50
2022-09-20T01:41:07.762Z,6.48
2022-09-20T01:43:41.973Z,6.45
2022-09-20T01:46:23.115Z,6.40
2022-09-20T01:48:57.155Z,6.38
2022-09-20T01:51:50.478Z,6.37
2022-09-20T01:54:59.815Z,6.39
2022-09-20T01:57:46.704Z,6.32
2022-09-20T02:00:20.648Z,6.33
2022-09-20T02:03:09.285Z,6.38
2022-09-20T02:06:08.914Z,6.42
2022-09-20T02:09:03.529Z,6.37
2022-09-20T02:11:47.250Z,6.34
2022-09-20T02:14:33.372Z,6.33
2022-09-20T02:17:13.933Z,6.31
2022-09-20T02:20:00.049Z,6.24
2022-09-20T02:22:45.902Z,6.21
2022-09-20T02:25:24.672Z,6.20
2022-09-20T02:28:07.386Z,6.17
2022-09-20T02:30:50.383Z,6.20
2022-09-20T02:33:45.449Z,6.18
2022-09-20T02:36:33.393Z,6.16
2022-09-20T02:39:09.183Z,6.27
2022-09-20T02:42:00.177Z,6.29
2022-09-20T02:44:41.676Z,6.24
2022-09-20T02:47:19.355Z,6.24
2022-09-20T02:50:01.861Z,6.23
2022-09-20T02:52:39.596Z,6.20
2022-09-20T02:55:14.180Z,6.23
2022-09-20T02:57:51.777Z,6.23
2022-09-20T03:00:25.262Z,6.26
2022-09-20T03:03:06.164Z,6.28
2022-09-20T03:05:43.207Z,6.28
2022-09-20T03:08:33.043Z,6.31
2022-09-20T03:11:13.336Z,6.31
2022-09-20T03:14:07.871Z,6.38
2022-09-20T03:16:51.881Z,6.38
2022-09-20T03:19:34.464Z,6.39
2022-09-20T03:22:22.727Z,6.41
2022-09-20T03:25:08.709Z,6.45
2022-09-20T03:27:44.963Z,6.45
2022-09-20T03:30:28.956Z,6.47
2022-09-20T03:33:06.600Z,6.50
2022-09-20T03:35:47.060Z,6.48
2022-09-20T03:38:40.546Z,6.50
2022-09-20T03:41:29.088Z,6.57
2022-09-20T03:44:18.079Z,6.62
2022-09-20T03:46:48.267Z,6.61
2022-09-20T03:49:55.715Z,6.67
2022-09-20T03:52:54.591Z,6.71
2022-09-20T03:55:51.241Z,6.71
2022-09-20T03:58:32.116Z,6.70
2022-09-20T04:01:12.871Z,6.73
2022-09-20T04:03:50.642Z,6.71
2022-09-20T04:06:46.885Z,6.75
2022-09-20T04:09:48.296Z,6.80
2022-09-20T04:12:36.449Z,6.80
2022-09-20T04:15:18.837Z,6.74
2022-09-20T04:17:54.527Z,6.82
2022-09-20T04:20:29.744Z,6.82
2022-09-20T04:23:01.561Z,6.83
2022-09-20T04:25:41.814Z,6.84
2022-09-20T04:28:17.005Z,6.86
2022-09-20T04:30:46.591Z,6.86
2022-09-20T04:33:21.485Z,6.89
2022-09-20T04:36:19.363Z,6.88
2022-09-20T04:38:54.512Z,6.90
2022-09-20T04:41:52.747Z,6.91
2022-09-20T04:44:48.921Z,6.92
2022-09-20T04:47:38.313Z,6.92
2022-09-20T04:50:31.166Z,6.96
2022-09-20T04:53:30.305Z,6.96
2022-09-20T04:56:02.356Z,7.04
2022-09-20T04:58:38.555Z,7.05
2022-09-20T05:01:42.406Z,7.06
2022-09-20T05:04:46.137Z,7.08
2022-09-20T05:07:49.188Z,7.11
2022-09-20T05:10:43.577Z,7.06
2022-09-20T05:13:22.027Z,7.09
2022-09-20T05:15:59.220Z,7.12
2022-09-20T05:19:00.976Z,7.15
2022-09-20T05:21:49.954Z,7.16
2022-09-20T05:24:31.998Z,7.19
2022-09-20T05:27:13.879Z,7.16
2022-09-20T05:29:52.220Z,7.19
2022-09-20T05:32:25.391Z,7.17
2022-09-20T05:35:01.377Z,7.19
2022-09-20T05:37:40.889Z,7.23
2022-09-20T05:40:22.287Z,7.24
2022-09-20T05:42:56.720Z,7.23
2022-09-20T05:45:47.474Z,7.28
2022-09-20T05:48:24.166Z,7.32
2022-09-20T05:51:03.674Z,7.38
2022-09-20T05:54:02.659Z,7.43
2022-09-20T05:56:48.555Z,7.48
2022-09-20T05:59:38.893Z,7.53
2022-09-20T06:02:25.254Z,7.55
2022-09-20T06:05:01.940Z,7.54
2022-09-20T06:07:46.107Z,7.58
2022-09-20T06:10:31.069Z,7.56
2022-09-20T06:13:10.067Z,7.59
2022-09-20T06:15:46.662Z,7.65
2022-09-20T06:18:26.027Z,7.71
2022-09-20T06:21:05.079Z,7.73
2022-09-20T06:23:36.724Z,7.78
2022-09-20T06:26:08.807Z,7.82
2022-09-20T06:28:41.273Z,7.86
2022-09-20T06:31:11.401Z,7.89
2022-09-20T06:33:44.344Z,7.97
2022-09-20T06:36:33.110Z,7.99
2022-09-20T06:39:27.534Z,8.07
2022-09-20T06:41:56.107Z,8.08
2022-09-20T06:44:23.999Z,8.12
2022-09-20T06:46:54.382Z,8.15
2022-09-20T06:49:22.909Z,8.18
2022-09-20T06:51:52.475Z,8.20
2022-09-20T06:54:23.027Z,8.20
2022-09-20T06:56:52.193Z,8.25
2022-09-20T06:59:20.307Z,8.25
2022-09-20T07:01:48.471Z,8.33
2022-09-20T07:04:16.407Z,8.38
2022-09-20T07:06:44.355Z,8.45
2022-09-20T07:09:13.106Z,8.55
2022-09-20T07:11:43.093Z,8.64
2022-09-20T07:14:11.047Z,8.74
2022-09-20T07:16:39.941Z,8.78
2022-09-20T07:19:08.214Z,8.89
2022-09-20T07:21:36.210Z,9.01
2022-09-20T07:24:04.253Z,9.02
2022-09-20T07:26:32.697Z,9.12
2022-09-20T07:29:02.478Z,9.21
2022-09-20T07:31:30.843Z,9.27
2022-09-20T07:33:58.866Z,9.39
2022-09-20T07:36:26.848Z,9.39
2022-09-20T07:38:54.837Z,9.46
2022-09-20T07:41:23.733Z,9.49
2022-09-20T07:43:52.318Z,9.55
2022-09-20T07:46:24.161Z,9.63
2022-09-20T07:48:52.342Z,9.71
2022-09-20T07:51:20.259Z,9.77
2022-09-20T07:53:48.140Z,9.97
2022-09-20T07:56:18.386Z,9.98
2022-09-20T07:58:52.121Z,10.00
2022-09-20T08:01:22.808Z,10.10
2022-09-20T08:03:52.070Z,10.23
2022-09-20T08:06:21.416Z,10.33
2022-09-20T08:08:49.435Z,10.40
2022-09-20T08:11:20.141Z,10.25
2022-09-20T08:14:07.009Z,10.29
2022-09-20T08:16:41.941Z,10.26
2022-09-20T08:19:12.785Z,10.31
2022-09-20T08:21:41.086Z,10.32
2022-09-20T08:24:09.026Z,10.46
2022-09-20T08:26:37.411Z,10.47
2022-09-20T08:29:07.283Z,10.52
2022-09-20T08:31:38.028Z,10.57
2022-09-20T08:34:09.642Z,10.62
2022-09-20T08:36:41.163Z,10.66
2022-09-20T08:42:06.249Z,10.85
2022-09-20T08:44:37.326Z,10.82
2022-09-20T08:47:13.630Z,10.84
2022-09-20T08:49:47.724Z,10.82
2022-09-20T08:52:19.238Z,10.86
2022-09-20T08:54:47.934Z,10.85
2022-09-20T08:57:18.681Z,10.87
2022-09-20T08:59:47.327Z,10.89
2022-09-20T09:02:18.160Z,10.86
2022-09-20T09:04:49.844Z,10.90
2022-09-20T09:07:21.784Z,11.00
2022-09-20T09:09:52.930Z,11.04
2022-09-20T09:12:25.155Z,11.10
2022-09-20T09:14:56.013Z,11.25
2022-09-20T09:17:28.979Z,11.30
2022-09-20T09:20:00.029Z,11.26
2022-09-20T09:22:35.341Z,11.20
2022-09-20T09:25:32.170Z,11.20
2022-09-20T09:28:02.607Z,11.15
2022-09-20T09:30:33.720Z,11.22
2022-09-20T09:33:23.074Z,11.15
2022-09-20T09:36:01.374Z,11.10
2022-09-20T09:38:31.431Z,11.20
2022-09-20T09:41:01.649Z,11.23
2022-09-20T09:43:33.534Z,11.21
2022-09-20T09:46:21.479Z,11.22
2022-09-20T09:49:06.845Z,11.37
2022-09-20T09:51:38.692Z,11.45
2022-09-20T09:54:08.203Z,11.43
2022-09-20T09:56:47.357Z,11.45
2022-09-20T09:59:34.215Z,11.43
2022-09-20T10:02:16.848Z,11.39
2022-09-20T10:04:55.247Z,11.38
2022-09-20T10:07:32.409Z,11.52
2022-09-20T10:10:09.827Z,11.59
2022-09-20T10:12:52.777Z,11.81
2022-09-20T10:15:35.291Z,11.93
2022-09-20T10:18:21.385Z,11.91
2022-09-20T10:21:07.586Z,11.97
2022-09-20T10:24:08.832Z,11.89
2022-09-20T10:26:51.921Z,11.80
2022-09-20T10:29:33.245Z,11.83
2022-09-20T10:32:15.731Z,11.98
2022-09-20T10:35:08.776Z,11.97
2022-09-20T10:37:52.936Z,12.12
2022-09-20T10:40:51.462Z,12.01
2022-09-20T10:43:42.462Z,11.96
2022-09-20T10:46:31.918Z,12.00
2022-09-20T10:49:11.916Z,11.98
2022-09-20T10:51:49.464Z,12.00
2022-09-20T10:54:31.847Z,11.98
2022-09-20T10:57:18.895Z,11.97
2022-09-20T10:59:55.669Z,12.00
2022-09-20T11:02:39.322Z,12.03
2022-09-20T11:05:31.594Z,12.10
2022-09-20T11:08:11.990Z,12.12
2022-09-20T11:10:46.213Z,12.09
2022-09-20T11:13:26.139Z,12.13
2022-09-20T11:16:04.306Z,12.22
2022-09-20T11:18:39.078Z,12.33
2022-09-20T11:21:12.847Z,12.38
2022-09-20T11:23:51.140Z,12.44
2022-09-20T11:26:27.004Z,12.38
2022-09-20T11:29:04.012Z,12.44
2022-09-20T11:31:37.403Z,12.42
2022-09-20T11:34:13.574Z,12.44
2022-09-20T11:36:53.063Z,12.42
2022-09-20T11:39:29.072Z,12.44
2022-09-20T11:42:01.055Z,12.45
2022-09-20T11:44:31.163Z,12.41
2022-09-20T11:47:04.201Z,12.55
2022-09-20T11:49:44.031Z,12.65
2022-09-20T11:52:40.778Z,12.53
2022-09-20T11:55:40.880Z,12.50
2022-09-20T11:58:12.353Z,12.61
2022-09-20T12:00:44.718Z,12.64
2022-09-20T12:03:28.485Z,12.75
2022-09-20T12:06:01.532Z,12.88
2022-09-20T12:08:33.473Z,12.73
2022-09-20T12:11:05.241Z,12.75
2022-09-20T12:13:36.798Z,12.66
2022-09-20T12:16:08.717Z,12.68
2022-09-20T12:18:48.615Z,12.69
2022-09-20T12:21:18.848Z,12.74
2022-09-20T12:24:23.674Z,12.76
2022-09-20T12:26:56.298Z,12.76
2022-09-20T12:29:57.315Z,12.76
2022-09-20T12:32:48.985Z,12.67
2022-09-20T12:35:56.990Z,12.56
2022-09-20T12:38:31.310Z,12.49
2022-09-20T12:41:01.569Z,12.58
2022-09-20T12:43:31.232Z,12.57
2022-09-20T12:46:04.504Z,12.58
2022-09-20T12:48:39.040Z,12.59
2022-09-20T12:51:37.999Z,12.60
2022-09-20T12:54:08.596Z,12.68
2022-09-20T12:56:38.961Z,12.67
2022-09-20T12:59:21.122Z,12.73
2022-09-20T13:01:49.314Z,12.83
2022-09-20T13:05:03.151Z,12.94
2022-09-20T13:07:53.272Z,12.96
2022-09-20T13:10:30.143Z,13.06
2022-09-20T13:13:23.208Z,13.08
2022-09-20T13:15:54.475Z,13.10
2022-09-20T13:18:24.917Z,13.27
2022-09-20T13:20:53.851Z,13.27
2022-09-20T13:23:28.350Z,13.35
2022-09-20T13:25:58.701Z,13.40
2022-09-20T13:28:35.235Z,13.32
2022-09-20T13:31:26.129Z,13.31
2022-09-20T13:33:54.334Z,13.36
2022-09-20T13:36:27.577Z,13.31
2022-09-20T13:38:59.032Z,13.40
2022-09-20T13:41:32.519Z,13.38
2022-09-20T13:44:01.432Z,13.39
2022-09-20T13:46:31.628Z,13.25
2022-09-20T13:49:13.990Z,13.24
2022-09-20T13:51:41.992Z,13.26
2022-09-20T13:54:25.644Z,13.32
2022-09-20T13:56:54.179Z,13.20
2022-09-20T13:59:22.306Z,13.18
2022-09-20T14:01:52.379Z,13.09
2022-09-20T14:04:23.447Z,13.04
2022-09-20T14:06:53.268Z,12.96
2022-09-20T14:09:29.395Z,12.90
2022-09-20T14:11:58.974Z,12.90
2022-09-20T14:14:27.618Z,12.88
2022-09-20T14:16:57.277Z,12.85
2022-09-20T14:19:32.246Z,12.75
2022-09-20T14:22:03.606Z,12.64
2022-09-20T14:24:35.643Z,12.69
2022-09-20T14:27:06.791Z,12.74
2022-09-20T14:29:41.035Z,12.80
2022-09-20T14:32:18.253Z,12.68
2022-09-20T14:34:48.015Z,12.69
2022-09-20T14:37:23.464Z,12.64
2022-09-20T14:39:56.281Z,12.67
2022-09-20T14:42:35.278Z,12.76
2022-09-20T14:45:05.020Z,12.82
2022-09-20T14:47:38.747Z,12.80
2022-09-20T14:50:24.750Z,12.76
2022-09-20T14:53:26.580Z,12.82
2022-09-20T14:56:11.518Z,12.87
2022-09-20T14:59:07.592Z,12.90
2022-09-20T15:01:36.980Z,12.88
2022-09-20T15:04:10.028Z,12.80
2022-09-20T15:06:38.963Z,12.94
2022-09-20T15:09:07.104Z,12.87
2022-09-20T15:11:36.759Z,12.81
2022-09-20T15:14:04.639Z,12.73
2022-09-20T15:16:33.378Z,12.83
2022-09-20T15:19:01.359Z,12.80
2022-09-20T15:21:29.157Z,12.69
2022-09-20T15:23:57.059Z,12.74
2022-09-20T15:26:24.885Z,12.54
2022-09-20T15:28:54.077Z,12.67
2022-09-20T15:31:21.950Z,12.70
2022-09-20T15:33:49.762Z,12.69
2022-09-20T15:36:17.535Z,12.69
2022-09-20T15:38:45.635Z,12.56
2022-09-20T15:41:13.420Z,12.52
2022-09-20T15:43:43.232Z,12.60
2022-09-20T15:46:20.851Z,12.64
2022-09-20T15:48:49.076Z,12.58
2022-09-20T15:51:17.225Z,12.58
2022-09-20T15:53:46.663Z,12.53
2022-09-20T15:56:17.617Z,12.54
2022-09-20T15:58:47.835Z,12.54
2022-09-20T16:01:16.855Z,12.54
2022-09-20T16:03:47.301Z,12.55
2022-09-20T16:06:15.107Z,12.59
2022-09-20T16:08:44.318Z,12.60
2022-09-20T16:11:19.246Z,12.57
2022-09-20T16:13:54.088Z,12.55
2022-09-20T16:16:22.556Z,12.52
2022-09-20T16:19:09.524Z,12.43
2022-09-20T16:21:39.190Z,12.42
2022-09-20T16:24:07.973Z,12.30
2022-09-20T16:26:37.890Z,12.34
2022-09-20T16:29:07.319Z,12.32
2022-09-20T16:31:39.946Z,12.32
2022-09-20T16:34:13.501Z,12.35
2022-09-20T16:36:43.258Z,12.25
2022-09-20T16:39:12.842Z,12.17
2022-09-20T16:41:41.141Z,12.22
2022-09-20T16:44:09.421Z,12.21
2022-09-20T16:46:37.461Z,12.24
2022-09-20T16:49:07.293Z,12.24
2022-09-20T16:51:38.139Z,12.18
2022-09-20T16:54:10.714Z,12.14
2022-09-20T16:56:39.217Z,12.13
2022-09-20T16:59:08.080Z,12.13
2022-09-20T17:01:37.711Z,12.07
2022-09-20T17:04:06.655Z,12.03
2022-09-20T17:06:37.031Z,11.98
2022-09-20T17:09:06.538Z,11.99
2022-09-20T17:11:36.792Z,11.97
2022-09-20T17:14:05.509Z,11.88
2022-09-20T17:16:35.484Z,11.87
2022-09-20T17:19:07.306Z,11.83
2022-09-20T17:21:39.852Z,11.85
2022-09-20T17:24:08.407Z,11.78
2022-09-20T17:26:38.749Z,11.69
2022-09-20T17:29:09.417Z,11.67
2022-09-20T17:31:39.203Z,11.65
2022-09-20T17:34:10.190Z,11.61
2022-09-20T17:36:41.930Z,11.58
2022-09-20T17:39:12.192Z,11.58
2022-09-20T17:41:41.536Z,11.57
2022-09-20T17:44:10.168Z,11.55
2022-09-20T17:46:39.910Z,11.51
2022-09-20T17:49:09.636Z,11.50
2022-09-20T17:51:40.368Z,11.48
2022-09-20T17:54:09.000Z,11.48
2022-09-20T17:56:37.115Z,11.45
2022-09-20T17:59:06.874Z,11.37
2022-09-20T18:01:36.971Z,11.39
2022-09-20T18:04:07.044Z,11.34
2022-09-20T18:06:37.068Z,11.30
2022-09-20T18:09:07.794Z,11.30
2022-09-20T18:11:37.873Z,11.29
2022-09-20T18:14:07.501Z,11.26
2022-09-20T18:16:36.348Z,11.20
2022-09-20T18:19:05.667Z,11.18
2022-09-20T18:21:35.441Z,11.15
2022-09-20T18:24:06.232Z,11.12
2022-09-20T18:26:36.285Z,11.08
2022-09-20T18:29:06.513Z,11.04
2022-09-20T18:31:36.913Z,11.02
2022-09-20T18:34:06.779Z,10.96
2022-09-20T18:36:39.365Z,10.92
2022-09-20T18:39:08.138Z,10.91
2022-09-20T18:41:40.872Z,10.90
2022-09-20T18:44:08.970Z,10.90
2022-09-20T18:46:38.801Z,10.88
2022-09-20T18:49:09.635Z,10.87
2022-09-20T18:51:40.145Z,10.79
2022-09-20T18:54:10.089Z,10.77
2022-09-20T18:56:41.378Z,10.73
2022-09-20T18:59:15.460Z,10.72
2022-09-20T19:01:59.162Z,10.64
2022-09-20T19:04:55.999Z,10.58
2022-09-20T19:07:32.858Z,10.55
2022-09-20T19:10:08.765Z,10.53
2022-09-20T19:12:41.594Z,10.40
2022-09-20T19:15:40.082Z,10.31
2022-09-20T19:18:21.562Z,10.29
2022-09-20T19:20:59.455Z,10.29
2022-09-20T19:23:42.482Z,10.25
2022-09-20T19:26:20.290Z,10.16
2022-09-20T19:28:50.223Z,10.12
2022-09-20T19:31:23.505Z,10.12
2022-09-20T19:33:54.967Z,10.07
2022-09-20T19:36:23.858Z,10.11
2022-09-20T19:39:01.865Z,10.08
2022-09-20T19:41:38.478Z,10.10
2022-09-20T19:44:18.215Z,10.08
2022-09-20T19:47:01.768Z,10.07
2022-09-20T19:49:40.014Z,10.03
2022-09-20T19:52:11.246Z,10.00
2022-09-20T19:54:42.202Z,9.99
2022-09-20T19:57:19.938Z,9.99
2022-09-20T19:59:50.566Z,9.96
2022-09-20T20:02:19.084Z,9.99
2022-09-20T20:04:47.236Z,9.96
2022-09-20T20:07:24.784Z,9.91
2022-09-20T20:09:59.714Z,9.90
2022-09-20T20:12:35.267Z,9.85
2022-09-20T20:15:16.116Z,9.82
2022-09-20T20:17:52.568Z,9.82
2022-09-20T20:20:29.682Z,9.74
2022-09-20T20:23:37.659Z,9.74
2022-09-20T20:26:09.146Z,9.76
2022-09-20T20:28:38.117Z,9.72
2022-09-20T20:31:12.130Z,9.65
2022-09-20T20:33:40.712Z,9.63
2022-09-20T20:36:11.155Z,9.61
2022-09-20T20:38:40.256Z,9.59
2022-09-20T20:41:09.857Z,9.59
2022-09-20T20:43:39.213Z,9.52
2022-09-20T20:46:10.213Z,9.46
2022-09-20T20:48:38.590Z,9.44
2022-09-20T20:51:09.511Z,9.40
2022-09-20T20:53:39.329Z,9.36
2022-09-20T20:56:09.654Z,9.30
2022-09-20T20:58:40.755Z,9.22
2022-09-20T21:01:12.028Z,9.20
2022-09-20T21:03:41.640Z,9.09
2022-09-20T21:06:10.889Z,9.10
2022-09-20T21:08:40.386Z,9.09
2022-09-20T21:11:11.503Z,9.06
2022-09-20T21:13:39.961Z,9.02
2022-09-20T21:16:11.754Z,8.99
2022-09-20T21:18:41.014Z,8.96
2022-09-20T21:21:15.977Z,8.90
2022-09-20T21:23:45.846Z,8.84
2022-09-20T21:26:15.613Z,8.83
2022-09-20T21:28:44.975Z,8.71
2022-09-20T21:31:14.470Z,8.71
2022-09-20T21:33:43.915Z,8.66
2022-09-20T21:36:13.788Z,8.64
2022-09-20T21:38:42.345Z,8.65
2022-09-20T21:41:12.333Z,8.63
2022-09-20T21:43:42.566Z,8.61
2022-09-20T21:46:17.518Z,8.57
2022-09-20T21:48:45.922Z,8.58
2022-09-20T21:51:15.417Z,8.52
2022-09-20T21:53:43.487Z,8.43
2022-09-20T21:56:13.458Z,8.40
2022-09-20T21:58:41.675Z,8.35
2022-09-20T22:01:11.964Z,8.30
2022-09-20T22:03:43.105Z,8.31
2022-09-20T22:06:13.395Z,8.30
2022-09-20T22:08:43.417Z,8.21
2022-09-20T22:11:14.953Z,8.20
2022-09-20T22:13:43.894Z,8.15
2022-09-20T22:16:14.280Z,8.11
2022-09-20T22:18:45.043Z,8.06
2022-09-20T22:21:15.058Z,7.99
2022-09-20T22:23:43.791Z,8.01
2022-09-20T22:26:14.305Z,7.97
2022-09-20T22:28:43.030Z,7.95
2022-09-20T22:31:13.093Z,7.88
2022-09-20T22:33:44.445Z,7.84
2022-09-20T22:36:15.252Z,7.86
2022-09-20T22:38:43.817Z,7.82
2022-09-20T22:41:13.408Z,7.75
2022-09-20T22:43:41.823Z,7.71
2022-09-20T22:46:11.433Z,7.72
2022-09-20T22:48:40.115Z,7.69
2022-09-20T22:51:11.765Z,7.67
2022-09-20T22:53:40.110Z,7.61
2022-09-20T22:56:09.675Z,7.58
2022-09-20T22:58:39.187Z,7.56
2022-09-20T23:01:09.884Z,7.49
2022-09-20T23:03:39.066Z,7.49
2022-09-20T23:06:14.534Z,7.43
2022-09-20T23:08:42.750Z,7.46
2022-09-20T23:11:11.117Z,7.47
2022-09-20T23:13:39.361Z,7.40
2022-09-20T23:16:15.583Z,7.36
2022-09-20T23:18:43.824Z,7.35
2022-09-20T23:21:14.032Z,7.26
2022-09-20T23:23:43.230Z,7.22
2022-09-20T23:26:13.755Z,7.25
2022-09-20T23:28:43.602Z,7.15
2022-09-20T23:31:14.420Z,7.06
2022-09-20T23:33:48.202Z,7.04
2022-09-20T23:36:19.026Z,7.06
2022-09-20T23:38:47.997Z,7.01
2022-09-20T23:41:18.417Z,7.04
2022-09-20T23:43:47.067Z,6.99
2022-09-20T23:46:16.576Z,7.03
2022-09-20T23:48:45.558Z,6.96
2022-09-20T23:51:14.934Z,6.93
2022-09-20T23:53:44.480Z,6.86
2022-09-20T23:56:13.918Z,6.77
2022-09-20T23:58:43.915Z,6.80
